Aktualne dane pomiarowe

Uwaga, wersja testowa! Automatyczne pobieranie danych za pomocą narzędzi lub skryptów to umożliwiających jest zabronione.

Dane meteo z obszaru Polski uzyskane na podstawie depesz SYNOP pobieranych co godzinę z NWS. Najedź myszką na symbol przedstawiony w tabeli, aby uzyskać informacje co do jego znaczenia. Prosimy pamiętać, że to testowa wersja strony, która jeszcze nie jest ukończona. Stworzono również jest krótki FAQ dotyczący korzystania z tej podstrony Anomalie temperatury w chwili obecnej odniesione są do okresu referencyjnego 1951-2016. Okres ten będzie później zmieniony na 1981-2010. Kliknij ikonę aby pobrać plik CSV. Kliknij ikonę aby wygenerować mapę synoptyczną dla danego terminu.

Wybierz Datę:    

        

Katowice (12560)

Dane terminowe dla wybranej stacji. Kliknij datę, aby otrzymać dane z tego terminu dla wszystkich stacji.

TemperaturaZachmurzenieWiatrCiśnienieOpadyPogoda
 Data t td wb tx tn tg rh  Nt Nl Cl Cm Ch ws wd g1 g2 wx mslp ppp ch 24h 12h t ww ww w1 w2  
2019-07-07 23:00:00 13.1 5.7 8.9--- 6150.0wx-wx1wx--11012.2 979.0 1.2---------
2019-07-07 22:00:00 15.2 4.8 9.6--- 5050.0wx-wx2wx--21011.7 978.7 1.9---------
2019-07-07 21:00:00 15.5 4.8 9.7--- 4950.0wxwxwxwx1wx--11011.0 978.1 2.0---------
2019-07-07 20:00:00 16.1 5.4 10.2--- 4950.0wxwxwxwx1wx--11010.7 977.8 1.3---------
2019-07-07 19:00:00 16.9 7.0 11.3--- 5250.0wxwxwxwx1wx---1009.5 976.8 1.3---------
2019-07-07 18:00:00 16.2 10.9 12.8 21.3 14.6- 7130.0wxwxwxwxwx3wx-831008.9 976.1 0.2- 2.012wx-w1--
2019-07-07 17:00:00 17.0 11.3 13.4--- 6930.0wxwxwxwxwx4wx---1009.2 976.5 -0.2---------
2019-07-07 16:00:00 17.1 12.2 13.9--- 7330.0wxwxwxwxwx3wx---1008.2 975.5 -1.0---------
2019-07-07 15:00:00 16.0 12.4 13.6--- 7920.0wxwxwxwxwx3wx-831008.7 975.9 -0.6---wx---
2019-07-07 14:00:00 14.6 12.1 12.9--- 858.0wxwxwx3wx-831009.7 976.7 0.1---wx---
2019-07-07 13:00:00 17.4 9.8 12.8--- 6130.0wxwxwxwx3wx---1009.2 976.5 0.9---------
2019-07-07 12:00:00 17.0 10.6 13.0--- 6630.0wxwxwxwx3wx-831009.2 976.5 1.5- 0.06------
2019-07-07 11:00:00 17.2 11.2 13.4--- 6820.0wxwxwx3wx---1009.3 976.6 2.1---------
2019-07-07 10:00:00 19.4 12.6 15.1--- 6530.0wxwxwxwxwx2wx-821008.0 975.6 1.4---------
2019-07-07 09:00:00 20.2 12.4 15.3--- 6130.0wxwxwxwx3wx-731007.3 975.0 0.5---------
2019-07-07 08:00:00 20.8 12.0 15.4--- 5730.0wxwxwxwx3wx--31006.7 974.5 0.2---------
2019-07-07 07:00:00 20.8 12.2 15.5--- 5830.0wx-wxwx2wx--21006.4 974.2 -0.2---------
2019-07-07 06:00:00 19.2 11.7 14.5 25.3 13.4 12 6230.0wx-wx2wx--21006.9 974.5 0.5- 0.012----- 8.6
2019-07-07 05:00:00 18.0 12.4 14.4--- 7030.0wx-wx1wx--11006.8 974.3 0.4---------
2019-07-07 04:00:00 14.5 12.2 12.9--- 8630.0wx-wx1wx--11007.3 974.4 0.3---------
2019-07-07 03:00:00 14.3 10.5 11.8--- 7830.0wx-wx1wx--11006.9 974.0 0.0---------
2019-07-07 02:00:00 17.6 11.2 13.6--- 6630.0wx-wx1wx--11006.5 973.9 0.3---------
2019-07-07 01:00:00 18.9 11.2 14.1--- 6150.0wx-wx2wx---1006.5 974.1 1.3---------
2019-07-07 00:00:00 19.6 10.8 14.2--- 5750.0wx-wx2wx--21006.3 974.0 1.3- 0.06------
2019-07-06 23:00:00 20.8 10.0 14.4--- 5030.0wx-wx1wx--11005.8 973.6 0.6---------
2019-07-06 22:00:00 17.8 12.3 14.3--- 7030.0wxwxwxwx1wx--11005.3 972.8 -0.6---------
2019-07-06 21:00:00 18.4 12.4 14.6--- 6850.0wx-wx1wx--11005.1 972.7 -1.1---------
2019-07-06 20:00:00 18.5 11.3 14.0--- 6330.0wx-wx1wx--11005.4 973.0 -1.1---------
2019-07-06 19:00:00 21.1 11.7 15.3--- 5530.0wx-wx1wx--11005.5 973.4 -1.1---------
2019-07-06 18:00:00 25.3 9.6 16.1 28.3 19.5- 3750.0wx-wxwx1wx-1111005.5 973.8 -1.1- 0.012------
2019-07-06 17:00:00 27.6 8.0 16.4--- 2950.0wxwxwxwx3wx-931005.6 974.1 -1.3---------
2019-07-06 16:00:00 27.6 8.5 16.6--- 3030.0wxwxwx6wx-1161006.0 974.5 -1.4---------
2019-07-06 15:00:00 27.4 7.8 16.2--- 2950.0wxwxwxwx5wx-1151006.4 974.9 -1.4---------
2019-07-06 14:00:00 28.1 8.4 16.7--- 2930.0wxwxwxwx4wx-1141006.8 975.4 -1.8---------
2019-07-06 13:00:00 27.5 7.4 16.1--- 2830.0wxwxwxwx7wx--71007.4 975.9 -2.1---------
2019-07-06 12:00:00 26.4 7.4 15.6--- 3030.0wxwxwxwx5wx-1051008.0 976.3 -2.2- 0.06------
2019-07-06 11:00:00 26.0 8.5 15.9--- 3330.0wxwxwxwx5wx-951008.9 977.2 -1.8---------
2019-07-06 10:00:00 24.6 9.3 15.7--- 3830.0wxwxwxwx4wx-1041009.9 978.0 -1.4---------
2019-07-06 09:00:00 23.4 8.7 14.9--- 3930.0wxwxwxwxwx5wx--51010.6 978.5 -1.2---------
2019-07-06 08:00:00 22.5 10.3 15.3--- 4630.0wxwxwxwx2wx--21011.2 979.0 -0.9---------
2019-07-06 07:00:00 20.8 10.0 14.4--- 5030.0wx-wx4wx--41011.8 979.4 -0.7---------
2019-07-06 06:00:00 19.5 11.0 14.3 20.1 15.0 13 5830.0wx-wxwx2wx--21012.2 979.7 -0.6--12wx-w1- 1.4
2019-07-06 05:00:00 18.1 10.9 13.6--- 6330.0wxwxwxwxwx2wx--21012.6 979.9 -0.5---------
2019-07-06 04:00:00 15.6 11.6 13.0--- 7730.0wx-wx1wx--11013.1 980.1 -0.6---------
2019-07-06 03:00:00 15.3 10.9 12.5--- 7530.0wxwxwxwx2wx--21013.3 980.3 -0.6---wx-w1--
2019-07-06 02:00:00 15.5 10.7 12.4--- 7330.0wxwxwxwx2wx--21013.4 980.4 -0.6---wx---
2019-07-06 01:00:00 16.0 10.5 12.5--- 7030.0wxwxwxwx1wx--11013.7 980.7 -0.1---wx---
2019-07-06 00:00:00 16.4 9.8 12.4--- 6530.0wxwxwxwx2wx--21013.8 980.9 -0.2- 0.06------
1.8 ms

 

Print Friendly, PDF & Email